EGKKLEAL

Guest
Details From EGKK - London Gatwick
To LEAL - Alicante
Flight Number -
Tags decoded
Created
Modified
Stats Distance 773 nm / 1,431 km
Max Altitude 0 ft / 0 m
Waypoints 2
Social Downloads 0
Likes 0
Share VATSIM

Download

Looking for another format? Having issues loading an existing format? Contact us
Advertisement - Login to hide

Notes

Requested: EGKK LEAL

Route

EGKK LEAL

ID Type Via Altitude Latitude Longitude Leg Dist Tot Dist Heading (true) Name
O EGKK APT - 0 ft / 0 m 51.14875˚ -0.19247˚ - 0 nm - London Gatwick
O LEAL APT - 0 ft / 0 m 38.28217˚ -0.55816˚ 772 nm 772 nm 181° / 181° Alicante

Altitude Profile

Advertisement - Login to hide

Weather


0- 5 10 15 20 25 30 35+ Temperature / ° C

Clouds and Precipitation
Forecast for 2017-12-12 06:00 UTC. Updated 2 hours ago

Ground ~20,000 ft ~40,000 ft Winds

EGKK

Details ICAO EGKK (LGW)
Name London Gatwick
Region United Kingdom
Timezone Europe/London (UTC+0.0)
Stats Elevation 196 ft / 60 m (AMSL)
Location 51.148753° -0.192472°
Runways 2
Magnetic Variation 0.433° W

METAR

EGKK 120520Z VRB02KT CAVOK M02/M03 Q1005

Decode

TAF

TAF EGKK 112253Z 1200/1306 34010KT CAVOK BECMG 1206/1209 VRB05KT BECMG 1218/1221 BKN030 BECMG 1221/1224 -RA BKN012 TEMPO 1300/1306 6000 RA BKN006 PROB30 TEMPO 1300/1306 21015G25KT 3000 +RA BKN004

Decode

Departure Runways

ID Width Length Bearing (true) Bearing (mag) Surface Threshold Offset Overrun Length
08L 148 ft / 45 m 8,377 ft / 2,553 m 77.69° 78.12° Asphalt 1,053 ft / 321 m 0 ft / 0 m
08R 148 ft / 45 m 10,341 ft / 3,152 m 77.59° 78.02° Asphalt 1,289 ft / 393 m 0 ft / 0 m
26L 148 ft / 45 m 10,341 ft / 3,152 m 257.63° 258.06° Asphalt 879 ft / 268 m 600 ft / 183 m
26R 148 ft / 45 m 8,377 ft / 2,553 m 257.71° 258.14° Asphalt 1,365 ft / 416 m 0 ft / 0 m

LEAL

Details ICAO LEAL (ALC)
Name Alicante
Region Spain
Timezone Europe/Madrid (UTC+1.0)
Stats Elevation 141 ft / 43 m (AMSL)
Location 38.282169° -0.558157°
Runways 1
Magnetic Variation 0.183° E

METAR

LEAL 120500Z 29009KT CAVOK 08/04 Q1008 NOSIG

Decode

TAF

TAF TAF LEAL 112300Z 1200/1224 30007KT 9999 FEW030 SCT050 TX16/1212Z TN06/1206Z TEMPO 1212/1218 13007KT

Decode

Destination Runways

ID Width Length Bearing (true) Bearing (mag) Surface Threshold Offset Overrun Length
10 148 ft / 45 m 9,799 ft / 2,987 m 100.07° 99.89° Asphalt 0 ft / 0 m 164 ft / 50 m
28 148 ft / 45 m 9,799 ft / 2,987 m 280.09° 279.91° Asphalt 0 ft / 0 m 197 ft / 60 m

Approach Navaids

Runway Type Ident Frequency Range Bearing (true) Bearing (mag) Slope Elevation
10 Localiser IAT 110.30 MHz 18 nm / 33 km 100.09° 99.91° - 29 ft / 9 m (AMSL)
10 Glidescope IAT 110.30 MHz 10 nm / 19 km 100.09° 99.91° 3.00° 129 ft / 39 m (AMSL)
10 DME IAT 110.30 MHz 18 nm / 33 km - - - 129 ft / 39 m (AMSL)

Popular Alternatives